sensor_id;sensor_type;location;lat;lon;timestamp;P1;durP1;ratioP1;P2;durP2;ratioP2
40256;SDS011;25977;45.462;9.210;2023-08-06T00:00:22;0.57;;;0.30;;
40256;SDS011;25977;45.462;9.210;2023-08-06T00:02:48;0.57;;;0.40;;
40256;SDS011;25977;45.462;9.210;2023-08-06T00:05:14;0.70;;;0.57;;
40256;SDS011;25977;45.462;9.210;2023-08-06T00:07:43;0.70;;;0.43;;
40256;SDS011;25977;45.462;9.210;2023-08-06T00:10:10;0.60;;;0.40;;
40256;SDS011;25977;45.462;9.210;2023-08-06T00:12:35;1.38;;;0.52;;
40256;SDS011;25977;45.462;9.210;2023-08-06T00:15:01;0.55;;;0.50;;
40256;SDS011;25977;45.462;9.210;2023-08-06T00:17:27;1.00;;;0.60;;
40256;SDS011;25977;45.462;9.210;2023-08-06T00:19:53;0.77;;;0.77;;
40256;SDS011;25977;45.462;9.210;2023-08-06T00:22:18;1.70;;;0.60;;
40256;SDS011;25977;45.462;9.210;2023-08-06T00:24:44;1.40;;;0.60;;
40256;SDS011;25977;45.462;9.210;2023-08-06T00:27:09;0.40;;;0.30;;
40256;SDS011;25977;45.462;9.210;2023-08-06T00:29:35;0.40;;;0.30;;
40256;SDS011;25977;45.462;9.210;2023-08-06T00:32:01;1.95;;;0.40;;
40256;SDS011;25977;45.462;9.210;2023-08-06T00:34:27;0.80;;;0.63;;
40256;SDS011;25977;45.462;9.210;2023-08-06T00:36:52;1.20;;;0.63;;
40256;SDS011;25977;45.462;9.210;2023-08-06T00:39:19;0.70;;;0.70;;
40256;SDS011;25977;45.462;9.210;2023-08-06T00:41:45;2.13;;;1.48;;
40256;SDS011;25977;45.462;9.210;2023-08-06T00:44:10;1.27;;;0.82;;
40256;SDS011;25977;45.462;9.210;2023-08-06T00:46:36;0.60;;;0.60;;
40256;SDS011;25977;45.462;9.210;2023-08-06T00:49:02;0.80;;;0.80;;
40256;SDS011;25977;45.462;9.210;2023-08-06T00:51:28;0.70;;;0.70;;
40256;SDS011;25977;45.462;9.210;2023-08-06T00:53:55;0.55;;;0.55;;
40256;SDS011;25977;45.462;9.210;2023-08-06T00:56:21;1.15;;;0.80;;
40256;SDS011;25977;45.462;9.210;2023-08-06T00:58:47;0.68;;;0.68;;
40256;SDS011;25977;45.462;9.210;2023-08-06T01:01:13;0.60;;;0.60;;
40256;SDS011;25977;45.462;9.210;2023-08-06T01:03:38;0.70;;;0.70;;
40256;SDS011;25977;45.462;9.210;2023-08-06T01:06:04;0.93;;;0.93;;
40256;SDS011;25977;45.462;9.210;2023-08-06T01:08:36;0.50;;;0.50;;
40256;SDS011;25977;45.462;9.210;2023-08-06T01:16:41;1.92;;;0.98;;
40256;SDS011;25977;45.462;9.210;2023-08-06T01:19:17;2.47;;;0.75;;
40256;SDS011;25977;45.462;9.210;2023-08-06T01:21:43;6.57;;;0.95;;
40256;SDS011;25977;45.462;9.210;2023-08-06T01:24:09;0.55;;;0.55;;
40256;SDS011;25977;45.462;9.210;2023-08-06T01:26:42;0.70;;;0.52;;
40256;SDS011;25977;45.462;9.210;2023-08-06T01:29:15;0.85;;;0.47;;
40256;SDS011;25977;45.462;9.210;2023-08-06T01:31:48;4.95;;;0.85;;
40256;SDS011;25977;45.462;9.210;2023-08-06T01:34:23;0.47;;;0.47;;
40256;SDS011;25977;45.462;9.210;2023-08-06T01:36:50;0.70;;;0.57;;
40256;SDS011;25977;45.462;9.210;2023-08-06T01:39:16;0.50;;;0.50;;
40256;SDS011;25977;45.462;9.210;2023-08-06T01:41:45;0.47;;;0.47;;
40256;SDS011;25977;45.462;9.210;2023-08-06T01:44:12;0.90;;;0.50;;
40256;SDS011;25977;45.462;9.210;2023-08-06T01:46:38;1.65;;;0.52;;
40256;SDS011;25977;45.462;9.210;2023-08-06T01:49:03;0.60;;;0.60;;
40256;SDS011;25977;45.462;9.210;2023-08-06T01:51:29;0.47;;;0.47;;
40256;SDS011;25977;45.462;9.210;2023-08-06T01:53:54;0.57;;;0.55;;
40256;SDS011;25977;45.462;9.210;2023-08-06T01:56:20;1.48;;;0.60;;
40256;SDS011;25977;45.462;9.210;2023-08-06T01:58:46;0.63;;;0.57;;
40256;SDS011;25977;45.462;9.210;2023-08-06T02:01:11;0.77;;;0.60;;
40256;SDS011;25977;45.462;9.210;2023-08-06T02:03:37;0.60;;;0.60;;
40256;SDS011;25977;45.462;9.210;2023-08-06T02:06:03;0.80;;;0.80;;
40256;SDS011;25977;45.462;9.210;2023-08-06T02:08:28;0.47;;;0.47;;
40256;SDS011;25977;45.462;9.210;2023-08-06T02:10:54;0.85;;;0.65;;
40256;SDS011;25977;45.462;9.210;2023-08-06T02:13:20;1.10;;;0.60;;
40256;SDS011;25977;45.462;9.210;2023-08-06T02:15:45;0.82;;;0.80;;
40256;SDS011;25977;45.462;9.210;2023-08-06T02:18:14;1.30;;;0.77;;
40256;SDS011;25977;45.462;9.210;2023-08-06T02:20:41;1.65;;;0.75;;
40256;SDS011;25977;45.462;9.210;2023-08-06T02:23:07;0.63;;;0.63;;
40256;SDS011;25977;45.462;9.210;2023-08-06T02:25:32;0.88;;;0.82;;
40256;SDS011;25977;45.462;9.210;2023-08-06T02:27:58;2.47;;;0.60;;
40256;SDS011;25977;45.462;9.210;2023-08-06T02:30:24;0.50;;;0.50;;
40256;SDS011;25977;45.462;9.210;2023-08-06T02:32:50;1.15;;;0.82;;
40256;SDS011;25977;45.462;9.210;2023-08-06T02:35:15;0.85;;;0.85;;
40256;SDS011;25977;45.462;9.210;2023-08-06T02:37:41;0.98;;;0.98;;
40256;SDS011;25977;45.462;9.210;2023-08-06T02:40:07;0.77;;;0.77;;
40256;SDS011;25977;45.462;9.210;2023-08-06T02:42:33;0.40;;;0.40;;
40256;SDS011;25977;45.462;9.210;2023-08-06T02:44:59;0.50;;;0.35;;
40256;SDS011;25977;45.462;9.210;2023-08-06T02:47:24;3.03;;;1.30;;
40256;SDS011;25977;45.462;9.210;2023-08-06T02:49:50;0.55;;;0.45;;
40256;SDS011;25977;45.462;9.210;2023-08-06T02:52:16;0.40;;;0.40;;
40256;SDS011;25977;45.462;9.210;2023-08-06T02:54:42;0.60;;;0.55;;
40256;SDS011;25977;45.462;9.210;2023-08-06T02:57:08;0.77;;;0.50;;
40256;SDS011;25977;45.462;9.210;2023-08-06T02:59:35;1.02;;;0.93;;
40256;SDS011;25977;45.462;9.210;2023-08-06T03:02:11;0.65;;;0.65;;
40256;SDS011;25977;45.462;9.210;2023-08-06T03:04:57;3.63;;;0.60;;
40256;SDS011;25977;45.462;9.210;2023-08-06T03:07:26;0.65;;;0.40;;
40256;SDS011;25977;45.462;9.210;2023-08-06T03:09:58;1.55;;;0.50;;
40256;SDS011;25977;45.462;9.210;2023-08-06T03:12:24;0.50;;;0.50;;
40256;SDS011;25977;45.462;9.210;2023-08-06T03:14:49;0.77;;;0.43;;
40256;SDS011;25977;45.462;9.210;2023-08-06T03:17:16;1.17;;;0.60;;
40256;SDS011;25977;45.462;9.210;2023-08-06T03:19:42;1.52;;;0.55;;
40256;SDS011;25977;45.462;9.210;2023-08-06T03:22:09;3.53;;;0.60;;
40256;SDS011;25977;45.462;9.210;2023-08-06T03:24:36;1.13;;;0.70;;
40256;SDS011;25977;45.462;9.210;2023-08-06T03:27:02;0.38;;;0.38;;
40256;SDS011;25977;45.462;9.210;2023-08-06T03:29:29;1.70;;;0.50;;
40256;SDS011;25977;45.462;9.210;2023-08-06T03:31:58;0.50;;;0.50;;
40256;SDS011;25977;45.462;9.210;2023-08-06T03:34:23;0.77;;;0.47;;
40256;SDS011;25977;45.462;9.210;2023-08-06T03:36:50;1.00;;;0.60;;
40256;SDS011;25977;45.462;9.210;2023-08-06T03:39:16;1.20;;;0.98;;
40256;SDS011;25977;45.462;9.210;2023-08-06T03:41:41;1.63;;;0.60;;
40256;SDS011;25977;45.462;9.210;2023-08-06T03:44:07;0.77;;;0.63;;
40256;SDS011;25977;45.462;9.210;2023-08-06T03:46:33;1.65;;;1.08;;
40256;SDS011;25977;45.462;9.210;2023-08-06T03:49:00;3.25;;;0.75;;
40256;SDS011;25977;45.462;9.210;2023-08-06T03:51:26;2.33;;;1.40;;
40256;SDS011;25977;45.462;9.210;2023-08-06T03:53:53;2.63;;;0.80;;
40256;SDS011;25977;45.462;9.210;2023-08-06T03:56:18;0.60;;;0.60;;
40256;SDS011;25977;45.462;9.210;2023-08-06T03:58:44;0.50;;;0.50;;
40256;SDS011;25977;45.462;9.210;2023-08-06T04:01:10;0.70;;;0.68;;
40256;SDS011;25977;45.462;9.210;2023-08-06T04:03:42;1.85;;;0.60;;
40256;SDS011;25977;45.462;9.210;2023-08-06T04:06:08;2.10;;;0.77;;
40256;SDS011;25977;45.462;9.210;2023-08-06T04:08:35;0.98;;;0.60;;
40256;SDS011;25977;45.462;9.210;2023-08-06T04:11:01;1.20;;;0.55;;
40256;SDS011;25977;45.462;9.210;2023-08-06T04:13:27;0.70;;;0.57;;
40256;SDS011;25977;45.462;9.210;2023-08-06T04:15:53;1.40;;;0.77;;
40256;SDS011;25977;45.462;9.210;2023-08-06T04:18:20;0.57;;;0.57;;
40256;SDS011;25977;45.462;9.210;2023-08-06T04:20:47;1.23;;;0.70;;
40256;SDS011;25977;45.462;9.210;2023-08-06T04:23:14;1.20;;;0.98;;
40256;SDS011;25977;45.462;9.210;2023-08-06T04:25:41;0.77;;;0.77;;
40256;SDS011;25977;45.462;9.210;2023-08-06T04:28:07;1.27;;;0.82;;
40256;SDS011;25977;45.462;9.210;2023-08-06T04:30:33;0.88;;;0.77;;
40256;SDS011;25977;45.462;9.210;2023-08-06T04:33:00;2.78;;;1.10;;
40256;SDS011;25977;45.462;9.210;2023-08-06T04:35:26;3.55;;;0.98;;
40256;SDS011;25977;45.462;9.210;2023-08-06T04:37:52;2.05;;;0.88;;
40256;SDS011;25977;45.462;9.210;2023-08-06T04:40:18;1.20;;;0.80;;
40256;SDS011;25977;45.462;9.210;2023-08-06T04:42:44;2.17;;;0.75;;
40256;SDS011;25977;45.462;9.210;2023-08-06T04:45:10;0.75;;;0.57;;
40256;SDS011;25977;45.462;9.210;2023-08-06T04:47:36;0.93;;;0.93;;
40256;SDS011;25977;45.462;9.210;2023-08-06T04:50:06;2.47;;;1.83;;
40256;SDS011;25977;45.462;9.210;2023-08-06T04:52:32;1.50;;;1.10;;
40256;SDS011;25977;45.462;9.210;2023-08-06T04:54:57;1.40;;;1.30;;
40256;SDS011;25977;45.462;9.210;2023-08-06T04:57:23;1.40;;;1.20;;
40256;SDS011;25977;45.462;9.210;2023-08-06T04:59:49;1.75;;;1.60;;
40256;SDS011;25977;45.462;9.210;2023-08-06T05:02:15;1.33;;;1.23;;
40256;SDS011;25977;45.462;9.210;2023-08-06T05:04:40;1.30;;;1.20;;
40256;SDS011;25977;45.462;9.210;2023-08-06T05:07:06;2.80;;;1.02;;
40256;SDS011;25977;45.462;9.210;2023-08-06T05:09:32;1.85;;;0.98;;
40256;SDS011;25977;45.462;9.210;2023-08-06T05:12:00;2.35;;;1.30;;
40256;SDS011;25977;45.462;9.210;2023-08-06T05:14:27;2.55;;;1.20;;
40256;SDS011;25977;45.462;9.210;2023-08-06T05:16:53;0.88;;;0.88;;
40256;SDS011;25977;45.462;9.210;2023-08-06T05:19:18;0.77;;;0.77;;
40256;SDS011;25977;45.462;9.210;2023-08-06T05:21:44;1.00;;;0.88;;
40256;SDS011;25977;45.462;9.210;2023-08-06T05:24:09;0.88;;;0.88;;
40256;SDS011;25977;45.462;9.210;2023-08-06T05:26:35;1.15;;;1.05;;
40256;SDS011;25977;45.462;9.210;2023-08-06T05:29:01;1.50;;;0.90;;
40256;SDS011;25977;45.462;9.210;2023-08-06T05:31:26;1.10;;;0.98;;
40256;SDS011;25977;45.462;9.210;2023-08-06T05:33:54;1.02;;;1.02;;
40256;SDS011;25977;45.462;9.210;2023-08-06T05:36:19;0.88;;;0.88;;
40256;SDS011;25977;45.462;9.210;2023-08-06T05:38:46;1.92;;;1.10;;
40256;SDS011;25977;45.462;9.210;2023-08-06T05:41:12;1.15;;;1.10;;
40256;SDS011;25977;45.462;9.210;2023-08-06T05:43:37;1.00;;;1.00;;
40256;SDS011;25977;45.462;9.210;2023-08-06T05:46:03;1.70;;;1.20;;
40256;SDS011;25977;45.462;9.210;2023-08-06T05:48:29;2.70;;;1.02;;
40256;SDS011;25977;45.462;9.210;2023-08-06T05:50:55;1.20;;;1.10;;
40256;SDS011;25977;45.462;9.210;2023-08-06T05:53:20;2.15;;;1.10;;
40256;SDS011;25977;45.462;9.210;2023-08-06T05:55:47;0.75;;;0.75;;
40256;SDS011;25977;45.462;9.210;2023-08-06T05:58:12;1.08;;;0.90;;
40256;SDS011;25977;45.462;9.210;2023-08-06T06:00:38;0.80;;;0.80;;
40256;SDS011;25977;45.462;9.210;2023-08-06T06:03:04;1.42;;;1.02;;
40256;SDS011;25977;45.462;9.210;2023-08-06T06:05:32;0.70;;;0.70;;
40256;SDS011;25977;45.462;9.210;2023-08-06T06:07:58;0.88;;;0.88;;
40256;SDS011;25977;45.462;9.210;2023-08-06T06:10:24;0.70;;;0.70;;
40256;SDS011;25977;45.462;9.210;2023-08-06T06:12:49;0.80;;;0.80;;
40256;SDS011;25977;45.462;9.210;2023-08-06T06:15:15;0.80;;;0.80;;
40256;SDS011;25977;45.462;9.210;2023-08-06T06:17:41;1.13;;;0.70;;
40256;SDS011;25977;45.462;9.210;2023-08-06T06:20:06;2.38;;;0.93;;
40256;SDS011;25977;45.462;9.210;2023-08-06T06:22:32;0.90;;;0.90;;
40256;SDS011;25977;45.462;9.210;2023-08-06T06:24:58;2.60;;;0.73;;
40256;SDS011;25977;45.462;9.210;2023-08-06T06:27:24;0.68;;;0.68;;
40256;SDS011;25977;45.462;9.210;2023-08-06T06:29:49;1.20;;;1.05;;
40256;SDS011;25977;45.462;9.210;2023-08-06T06:32:16;0.50;;;0.50;;
40256;SDS011;25977;45.462;9.210;2023-08-06T06:34:41;0.80;;;0.80;;
40256;SDS011;25977;45.462;9.210;2023-08-06T06:37:07;0.95;;;0.68;;
40256;SDS011;25977;45.462;9.210;2023-08-06T06:39:33;0.90;;;0.70;;
40256;SDS011;25977;45.462;9.210;2023-08-06T06:41:58;1.05;;;0.70;;
40256;SDS011;25977;45.462;9.210;2023-08-06T06:44:31;0.80;;;0.80;;
40256;SDS011;25977;45.462;9.210;2023-08-06T06:46:57;0.80;;;0.80;;
40256;SDS011;25977;45.462;9.210;2023-08-06T06:49:22;0.70;;;0.70;;
40256;SDS011;25977;45.462;9.210;2023-08-06T06:51:48;0.50;;;0.50;;
40256;SDS011;25977;45.462;9.210;2023-08-06T06:54:14;1.23;;;0.70;;
40256;SDS011;25977;45.462;9.210;2023-08-06T06:56:41;0.80;;;0.80;;
40256;SDS011;25977;45.462;9.210;2023-08-06T06:59:07;0.52;;;0.52;;
40256;SDS011;25977;45.462;9.210;2023-08-06T07:01:32;0.70;;;0.70;;
40256;SDS011;25977;45.462;9.210;2023-08-06T07:03:58;0.65;;;0.52;;
40256;SDS011;25977;45.462;9.210;2023-08-06T07:06:24;0.70;;;0.70;;
40256;SDS011;25977;45.462;9.210;2023-08-06T07:08:49;0.60;;;0.60;;
40256;SDS011;25977;45.462;9.210;2023-08-06T07:11:15;2.10;;;0.65;;
40256;SDS011;25977;45.462;9.210;2023-08-06T07:13:40;0.77;;;0.52;;
40256;SDS011;25977;45.462;9.210;2023-08-06T07:16:06;0.60;;;0.60;;
40256;SDS011;25977;45.462;9.210;2023-08-06T07:18:32;3.13;;;0.75;;
40256;SDS011;25977;45.462;9.210;2023-08-06T07:20:57;1.08;;;0.65;;
40256;SDS011;25977;45.462;9.210;2023-08-06T07:23:24;0.35;;;0.35;;
40256;SDS011;25977;45.462;9.210;2023-08-06T07:25:50;1.17;;;0.50;;
40256;SDS011;25977;45.462;9.210;2023-08-06T07:28:17;0.70;;;0.52;;
40256;SDS011;25977;45.462;9.210;2023-08-06T07:30:43;0.82;;;0.77;;
40256;SDS011;25977;45.462;9.210;2023-08-06T07:33:09;1.38;;;0.60;;
40256;SDS011;25977;45.462;9.210;2023-08-06T07:35:36;1.25;;;0.40;;
40256;SDS011;25977;45.462;9.210;2023-08-06T07:38:03;0.70;;;0.70;;
40256;SDS011;25977;45.462;9.210;2023-08-06T07:40:28;0.38;;;0.38;;
40256;SDS011;25977;45.462;9.210;2023-08-06T07:42:54;1.60;;;0.40;;
40256;SDS011;25977;45.462;9.210;2023-08-06T07:45:20;1.42;;;0.43;;
40256;SDS011;25977;45.462;9.210;2023-08-06T07:47:46;1.10;;;0.60;;
40256;SDS011;25977;45.462;9.210;2023-08-06T07:50:12;0.88;;;0.85;;
40256;SDS011;25977;45.462;9.210;2023-08-06T07:52:38;1.65;;;0.55;;
40256;SDS011;25977;45.462;9.210;2023-08-06T07:55:06;0.60;;;0.60;;
40256;SDS011;25977;45.462;9.210;2023-08-06T07:57:32;1.17;;;0.63;;
40256;SDS011;25977;45.462;9.210;2023-08-06T07:59:58;0.43;;;0.43;;
40256;SDS011;25977;45.462;9.210;2023-08-06T08:02:24;0.60;;;0.60;;
40256;SDS011;25977;45.462;9.210;2023-08-06T08:04:50;2.88;;;0.82;;
40256;SDS011;25977;45.462;9.210;2023-08-06T08:07:16;0.95;;;0.70;;
40256;SDS011;25977;45.462;9.210;2023-08-06T08:09:41;0.47;;;0.47;;
40256;SDS011;25977;45.462;9.210;2023-08-06T08:12:07;0.88;;;0.88;;
40256;SDS011;25977;45.462;9.210;2023-08-06T08:14:33;0.95;;;0.60;;
40256;SDS011;25977;45.462;9.210;2023-08-06T08:17:02;1.75;;;0.85;;
40256;SDS011;25977;45.462;9.210;2023-08-06T08:19:29;2.45;;;0.77;;
40256;SDS011;25977;45.462;9.210;2023-08-06T08:21:54;0.60;;;0.60;;
40256;SDS011;25977;45.462;9.210;2023-08-06T08:24:20;0.70;;;0.50;;
40256;SDS011;25977;45.462;9.210;2023-08-06T08:26:49;0.95;;;0.60;;
40256;SDS011;25977;45.462;9.210;2023-08-06T08:29:21;0.68;;;0.63;;
40256;SDS011;25977;45.462;9.210;2023-08-06T08:31:47;1.05;;;0.80;;
40256;SDS011;25977;45.462;9.210;2023-08-06T08:34:15;1.23;;;0.80;;
40256;SDS011;25977;45.462;9.210;2023-08-06T08:36:41;2.38;;;0.60;;
40256;SDS011;25977;45.462;9.210;2023-08-06T08:39:07;0.70;;;0.50;;
40256;SDS011;25977;45.462;9.210;2023-08-06T08:41:33;1.25;;;0.60;;
40256;SDS011;25977;45.462;9.210;2023-08-06T08:44:00;1.65;;;1.25;;
40256;SDS011;25977;45.462;9.210;2023-08-06T08:46:26;0.88;;;0.88;;
40256;SDS011;25977;45.462;9.210;2023-08-06T08:48:54;0.70;;;0.70;;
40256;SDS011;25977;45.462;9.210;2023-08-06T08:51:20;0.57;;;0.52;;
40256;SDS011;25977;45.462;9.210;2023-08-06T08:53:47;0.80;;;0.55;;
40256;SDS011;25977;45.462;9.210;2023-08-06T08:56:17;0.40;;;0.40;;
40256;SDS011;25977;45.462;9.210;2023-08-06T08:58:44;0.70;;;0.70;;
40256;SDS011;25977;45.462;9.210;2023-08-06T09:01:10;1.45;;;0.60;;
40256;SDS011;25977;45.462;9.210;2023-08-06T09:03:37;0.90;;;0.77;;
40256;SDS011;25977;45.462;9.210;2023-08-06T09:06:04;0.80;;;0.60;;
40256;SDS011;25977;45.462;9.210;2023-08-06T09:08:33;0.50;;;0.50;;
40256;SDS011;25977;45.462;9.210;2023-08-06T09:11:02;0.57;;;0.57;;
40256;SDS011;25977;45.462;9.210;2023-08-06T09:13:29;1.15;;;0.40;;
40256;SDS011;25977;45.462;9.210;2023-08-06T09:15:55;0.60;;;0.60;;
40256;SDS011;25977;45.462;9.210;2023-08-06T09:18:27;0.57;;;0.45;;
40256;SDS011;25977;45.462;9.210;2023-08-06T09:20:54;0.30;;;0.30;;
40256;SDS011;25977;45.462;9.210;2023-08-06T09:23:20;0.85;;;0.38;;
40256;SDS011;25977;45.462;9.210;2023-08-06T09:25:45;0.82;;;0.82;;
40256;SDS011;25977;45.462;9.210;2023-08-06T09:28:12;0.55;;;0.55;;
40256;SDS011;25977;45.462;9.210;2023-08-06T09:30:37;2.35;;;0.45;;
40256;SDS011;25977;45.462;9.210;2023-08-06T09:33:04;0.40;;;0.40;;
40256;SDS011;25977;45.462;9.210;2023-08-06T09:35:37;0.50;;;0.50;;
40256;SDS011;25977;45.462;9.210;2023-08-06T09:38:09;3.72;;;1.00;;
40256;SDS011;25977;45.462;9.210;2023-08-06T09:40:36;0.75;;;0.60;;
40256;SDS011;25977;45.462;9.210;2023-08-06T09:43:02;0.57;;;0.57;;
40256;SDS011;25977;45.462;9.210;2023-08-06T09:45:30;0.50;;;0.50;;
40256;SDS011;25977;45.462;9.210;2023-08-06T09:47:59;0.77;;;0.77;;
40256;SDS011;25977;45.462;9.210;2023-08-06T09:50:29;0.55;;;0.50;;
40256;SDS011;25977;45.462;9.210;2023-08-06T09:52:56;0.35;;;0.35;;
40256;SDS011;25977;45.462;9.210;2023-08-06T09:55:23;0.90;;;0.50;;
40256;SDS011;25977;45.462;9.210;2023-08-06T09:57:50;0.40;;;0.30;;
40256;SDS011;25977;45.462;9.210;2023-08-06T10:00:16;0.17;;;0.17;;
40256;SDS011;25977;45.462;9.210;2023-08-06T10:02:45;1.40;;;0.30;;
40256;SDS011;25977;45.462;9.210;2023-08-06T10:05:12;0.30;;;0.30;;
40256;SDS011;25977;45.462;9.210;2023-08-06T10:07:38;0.32;;;0.32;;
40256;SDS011;25977;45.462;9.210;2023-08-06T10:10:05;0.40;;;0.40;;
40256;SDS011;25977;45.462;9.210;2023-08-06T10:12:32;0.43;;;0.43;;
40256;SDS011;25977;45.462;9.210;2023-08-06T10:15:03;0.45;;;0.40;;
40256;SDS011;25977;45.462;9.210;2023-08-06T10:17:33;11.00;;;0.55;;
40256;SDS011;25977;45.462;9.210;2023-08-06T10:20:02;0.40;;;0.40;;
40256;SDS011;25977;45.462;9.210;2023-08-06T10:22:29;0.95;;;0.57;;
40256;SDS011;25977;45.462;9.210;2023-08-06T10:24:58;0.40;;;0.30;;
40256;SDS011;25977;45.462;9.210;2023-08-06T10:27:34;0.70;;;0.70;;
40256;SDS011;25977;45.462;9.210;2023-08-06T10:32:55;1.48;;;0.93;;
40256;SDS011;25977;45.462;9.210;2023-08-06T10:35:38;0.35;;;0.32;;
40256;SDS011;25977;45.462;9.210;2023-08-06T10:40:48;0.20;;;0.20;;
40256;SDS011;25977;45.462;9.210;2023-08-06T10:46:03;0.30;;;0.30;;
40256;SDS011;25977;45.462;9.210;2023-08-06T10:48:34;0.40;;;0.40;;
40256;SDS011;25977;45.462;9.210;2023-08-06T10:51:01;0.25;;;0.25;;
40256;SDS011;25977;45.462;9.210;2023-08-06T10:53:27;0.50;;;0.50;;
40256;SDS011;25977;45.462;9.210;2023-08-06T10:55:53;1.05;;;0.45;;
40256;SDS011;25977;45.462;9.210;2023-08-06T10:58:19;0.45;;;0.45;;
40256;SDS011;25977;45.462;9.210;2023-08-06T11:00:45;0.85;;;0.20;;
40256;SDS011;25977;45.462;9.210;2023-08-06T11:03:11;0.30;;;0.30;;
40256;SDS011;25977;45.462;9.210;2023-08-06T11:05:37;0.82;;;0.82;;
40256;SDS011;25977;45.462;9.210;2023-08-06T11:08:02;1.88;;;0.63;;
40256;SDS011;25977;45.462;9.210;2023-08-06T11:10:28;0.40;;;0.40;;
40256;SDS011;25977;45.462;9.210;2023-08-06T11:12:54;0.73;;;0.57;;
40256;SDS011;25977;45.462;9.210;2023-08-06T11:15:20;0.60;;;0.60;;
40256;SDS011;25977;45.462;9.210;2023-08-06T11:17:46;0.50;;;0.50;;
40256;SDS011;25977;45.462;9.210;2023-08-06T11:20:11;0.45;;;0.45;;
40256;SDS011;25977;45.462;9.210;2023-08-06T11:22:37;0.50;;;0.40;;
40256;SDS011;25977;45.462;9.210;2023-08-06T11:25:04;0.63;;;0.63;;
40256;SDS011;25977;45.462;9.210;2023-08-06T11:27:33;0.82;;;0.40;;
40256;SDS011;25977;45.462;9.210;2023-08-06T11:29:59;0.20;;;0.20;;
40256;SDS011;25977;45.462;9.210;2023-08-06T11:32:25;0.65;;;0.40;;
40256;SDS011;25977;45.462;9.210;2023-08-06T11:34:52;0.45;;;0.45;;
40256;SDS011;25977;45.462;9.210;2023-08-06T11:37:23;0.40;;;0.40;;
40256;SDS011;25977;45.462;9.210;2023-08-06T11:39:55;0.50;;;0.50;;
40256;SDS011;25977;45.462;9.210;2023-08-06T11:42:21;0.40;;;0.40;;
40256;SDS011;25977;45.462;9.210;2023-08-06T11:44:47;0.63;;;0.63;;
40256;SDS011;25977;45.462;9.210;2023-08-06T11:47:16;2.80;;;0.40;;
40256;SDS011;25977;45.462;9.210;2023-08-06T11:49:43;0.38;;;0.38;;
40256;SDS011;25977;45.462;9.210;2023-08-06T11:52:17;0.45;;;0.22;;
40256;SDS011;25977;45.462;9.210;2023-08-06T11:54:47;0.40;;;0.40;;
40256;SDS011;25977;45.462;9.210;2023-08-06T11:57:33;0.40;;;0.40;;
40256;SDS011;25977;45.462;9.210;2023-08-06T12:00:03;0.50;;;0.50;;
40256;SDS011;25977;45.462;9.210;2023-08-06T12:02:40;0.40;;;0.40;;
40256;SDS011;25977;45.462;9.210;2023-08-06T12:05:14;0.30;;;0.30;;
40256;SDS011;25977;45.462;9.210;2023-08-06T12:07:49;0.30;;;0.30;;
40256;SDS011;25977;45.462;9.210;2023-08-06T12:10:16;0.52;;;0.30;;
40256;SDS011;25977;45.462;9.210;2023-08-06T12:12:42;0.80;;;0.60;;
40256;SDS011;25977;45.462;9.210;2023-08-06T12:15:08;1.55;;;0.30;;
40256;SDS011;25977;45.462;9.210;2023-08-06T12:17:35;0.50;;;0.50;;
40256;SDS011;25977;45.462;9.210;2023-08-06T12:20:04;0.45;;;0.45;;
40256;SDS011;25977;45.462;9.210;2023-08-06T12:22:31;0.85;;;0.50;;
40256;SDS011;25977;45.462;9.210;2023-08-06T12:25:00;0.45;;;0.45;;
40256;SDS011;25977;45.462;9.210;2023-08-06T12:27:44;0.30;;;0.30;;
40256;SDS011;25977;45.462;9.210;2023-08-06T12:30:11;2.33;;;0.50;;
40256;SDS011;25977;45.462;9.210;2023-08-06T12:32:37;0.40;;;0.40;;
40256;SDS011;25977;45.462;9.210;2023-08-06T12:35:04;0.57;;;0.57;;
40256;SDS011;25977;45.462;9.210;2023-08-06T12:37:32;0.40;;;0.40;;
40256;SDS011;25977;45.462;9.210;2023-08-06T12:39:58;0.30;;;0.30;;
40256;SDS011;25977;45.462;9.210;2023-08-06T12:42:23;0.47;;;0.47;;
40256;SDS011;25977;45.462;9.210;2023-08-06T12:44:49;1.85;;;0.90;;
40256;SDS011;25977;45.462;9.210;2023-08-06T12:47:16;0.40;;;0.38;;
40256;SDS011;25977;45.462;9.210;2023-08-06T12:49:42;0.40;;;0.40;;
40256;SDS011;25977;45.462;9.210;2023-08-06T12:52:08;0.90;;;0.40;;
40256;SDS011;25977;45.462;9.210;2023-08-06T12:54:34;0.50;;;0.50;;
40256;SDS011;25977;45.462;9.210;2023-08-06T12:57:03;0.40;;;0.40;;
40256;SDS011;25977;45.462;9.210;2023-08-06T12:59:30;1.95;;;0.32;;
40256;SDS011;25977;45.462;9.210;2023-08-06T13:01:55;0.30;;;0.30;;
40256;SDS011;25977;45.462;9.210;2023-08-06T13:04:21;0.30;;;0.30;;
40256;SDS011;25977;45.462;9.210;2023-08-06T13:06:47;0.28;;;0.28;;
40256;SDS011;25977;45.462;9.210;2023-08-06T13:09:12;0.55;;;0.55;;
40256;SDS011;25977;45.462;9.210;2023-08-06T13:11:41;1.10;;;0.63;;
40256;SDS011;25977;45.462;9.210;2023-08-06T13:14:11;2.33;;;0.63;;
40256;SDS011;25977;45.462;9.210;2023-08-06T13:16:38;0.20;;;0.20;;
40256;SDS011;25977;45.462;9.210;2023-08-06T13:19:05;0.88;;;0.30;;
40256;SDS011;25977;45.462;9.210;2023-08-06T13:21:35;0.47;;;0.47;;
40256;SDS011;25977;45.462;9.210;2023-08-06T13:24:21;0.30;;;0.30;;
40256;SDS011;25977;45.462;9.210;2023-08-06T13:26:46;0.50;;;0.50;;
40256;SDS011;25977;45.462;9.210;2023-08-06T13:29:12;0.30;;;0.30;;
40256;SDS011;25977;45.462;9.210;2023-08-06T13:31:38;0.57;;;0.50;;
40256;SDS011;25977;45.462;9.210;2023-08-06T13:34:03;0.30;;;0.30;;
40256;SDS011;25977;45.462;9.210;2023-08-06T13:36:29;0.30;;;0.30;;
40256;SDS011;25977;45.462;9.210;2023-08-06T13:38:56;0.10;;;0.10;;
40256;SDS011;25977;45.462;9.210;2023-08-06T13:41:22;1.48;;;1.00;;
40256;SDS011;25977;45.462;9.210;2023-08-06T13:43:48;0.20;;;0.20;;
40256;SDS011;25977;45.462;9.210;2023-08-06T13:46:14;1.23;;;0.25;;
40256;SDS011;25977;45.462;9.210;2023-08-06T13:48:44;0.17;;;0.17;;
40256;SDS011;25977;45.462;9.210;2023-08-06T13:51:11;0.13;;;0.13;;
40256;SDS011;25977;45.462;9.210;2023-08-06T13:53:38;0.13;;;0.10;;
40256;SDS011;25977;45.462;9.210;2023-08-06T13:56:04;0.13;;;0.10;;
40256;SDS011;25977;45.462;9.210;2023-08-06T13:58:31;0.35;;;0.22;;
40256;SDS011;25977;45.462;9.210;2023-08-06T14:00:57;1.95;;;0.20;;
40256;SDS011;25977;45.462;9.210;2023-08-06T14:03:23;0.25;;;0.20;;
40256;SDS011;25977;45.462;9.210;2023-08-06T14:05:48;0.68;;;0.20;;
40256;SDS011;25977;45.462;9.210;2023-08-06T14:08:15;0.10;;;0.10;;
40256;SDS011;25977;45.462;9.210;2023-08-06T14:10:43;0.28;;;0.20;;
40256;SDS011;25977;45.462;9.210;2023-08-06T14:13:10;1.65;;;0.20;;
40256;SDS011;25977;45.462;9.210;2023-08-06T14:15:35;0.45;;;0.20;;
40256;SDS011;25977;45.462;9.210;2023-08-06T14:18:01;0.50;;;0.50;;
40256;SDS011;25977;45.462;9.210;2023-08-06T14:20:27;0.20;;;0.17;;
40256;SDS011;25977;45.462;9.210;2023-08-06T14:22:53;0.20;;;0.17;;
40256;SDS011;25977;45.462;9.210;2023-08-06T14:25:19;0.10;;;0.08;;
40256;SDS011;25977;45.462;9.210;2023-08-06T14:27:45;1.73;;;0.43;;
40256;SDS011;25977;45.462;9.210;2023-08-06T14:30:11;0.40;;;0.20;;
40256;SDS011;25977;45.462;9.210;2023-08-06T14:32:36;0.95;;;0.30;;
40256;SDS011;25977;45.462;9.210;2023-08-06T14:35:02;1.67;;;0.50;;
40256;SDS011;25977;45.462;9.210;2023-08-06T14:37:28;0.13;;;0.10;;
40256;SDS011;25977;45.462;9.210;2023-08-06T14:39:53;0.10;;;0.10;;
40256;SDS011;25977;45.462;9.210;2023-08-06T14:42:19;0.20;;;0.20;;
40256;SDS011;25977;45.462;9.210;2023-08-06T14:44:45;0.10;;;0.10;;
40256;SDS011;25977;45.462;9.210;2023-08-06T14:47:11;1.13;;;0.22;;
40256;SDS011;25977;45.462;9.210;2023-08-06T14:49:37;0.20;;;0.20;;
40256;SDS011;25977;45.462;9.210;2023-08-06T14:52:03;0.20;;;0.20;;
40256;SDS011;25977;45.462;9.210;2023-08-06T14:54:29;2.97;;;0.20;;
40256;SDS011;25977;45.462;9.210;2023-08-06T14:56:55;0.30;;;0.17;;
40256;SDS011;25977;45.462;9.210;2023-08-06T14:59:21;1.25;;;0.20;;